Time;durP1;ratioP1;P1;durP2;ratioP2;P2;SDS_P1;SDS_P2;PMS_P1;PMS_P2;Temp;Humidity;BMP_temperature;BMP_pressure;BME280_temperature;BME280_humidity;BME280_pressure;Samples;Min_cycle;Max_cycle;Signal;HPM_P1;HPM_P2
2020/12/14 00:00:11;;;;;;;11.60;10.40;;;;;;;1.29;77.42;100442.26;1708464;82;21632;-82
2020/12/14 00:02:40;;;;;;;12.28;9.53;;;;;;;1.23;77.62;100441.45;1707523;82;21191;-83
2020/12/14 00:05:07;;;;;;;9.07;7.80;;;;;;;1.26;77.64;100442.53;1712225;82;21198;-86
2020/12/14 00:07:35;;;;;;;10.37;8.50;;;;;;;1.16;77.31;100411.41;1713148;81;21125;-86
2020/12/14 00:10:05;;;;;;;10.67;9.27;;;;;;;1.33;77.55;100441.53;1713206;80;21187;-85
2020/12/14 00:12:32;;;;;;;10.47;9.37;;;;;;;1.27;77.85;100448.61;1703828;82;21643;-85
2020/12/14 00:14:59;;;;;;;11.03;9.93;;;;;;;1.21;77.98;100443.86;1711302;82;21330;-84
2020/12/14 00:17:27;;;;;;;11.67;9.50;;;;;;;1.16;78.16;100438.97;1708549;82;21337;-84
2020/12/14 00:19:56;;;;;;;10.73;8.37;;;;;;;1.21;78.04;100439.44;1707399;83;21196;-86
2020/12/14 00:22:34;;;;;;;13.83;9.50;;;;;;;1.33;77.77;100437.59;1622154;85;21211;-84
2020/12/14 00:25:03;;;;;;;10.50;9.37;;;;;;;1.33;77.89;100443.67;1673451;85;21210;-83
2020/12/14 00:27:30;;;;;;;12.23;10.53;;;;;;;1.28;78.12;100444.55;1691217;85;21447;-88
2020/12/14 00:29:57;;;;;;;13.70;11.50;;;;;;;1.25;78.18;100451.36;1698983;84;21367;-85
2020/12/14 00:32:25;;;;;;;12.00;9.37;;;;;;;1.21;78.29;100449.95;1701226;84;21190;-86
2020/12/14 00:34:53;;;;;;;10.47;9.00;;;;;;;1.19;78.35;100447.92;1699614;84;21284;-88
2020/12/14 00:37:19;;;;;;;12.37;10.17;;;;;;;1.29;78.12;100442.75;1675046;83;21522;-87
2020/12/14 00:39:47;;;;;;;11.33;9.70;;;;;;;1.41;77.91;100451.41;1675155;84;21235;-86
2020/12/14 00:42:14;;;;;;;14.07;10.70;;;;;;;1.39;77.77;100446.27;1671141;84;21343;-85
2020/12/14 00:44:42;;;;;;;12.57;10.93;;;;;;;1.32;77.88;100454.33;1668982;84;21236;-85
2020/12/14 00:47:09;;;;;;;15.50;10.80;;;;;;;1.26;77.94;100449.09;1680002;84;21296;-84
2020/12/14 00:49:36;;;;;;;13.63;10.13;;;;;;;1.19;78.11;100440.50;1674475;84;21200;-82
2020/12/14 00:54:40;;;;;;;13.00;10.77;;;;;;;1.40;77.75;100444.02;1827243;77;22920;-85
2020/12/14 00:57:12;;;;;;;14.23;11.20;;;;;;;1.32;77.88;100442.02;1820452;77;21210;-87
2020/12/14 00:59:39;;;;;;;15.57;13.03;;;;;;;1.29;77.95;100450.63;1795609;78;21189;-87
2020/12/14 01:02:07;;;;;;;14.87;11.97;;;;;;;1.25;78.11;100438.22;1805079;78;21169;-84
2020/12/14 01:04:34;;;;;;;12.00;9.10;;;;;;;1.25;78.00;100441.34;1774100;79;21351;-84
2020/12/14 01:07:01;;;;;;;11.77;8.93;;;;;;;1.36;77.86;100439.48;1762757;78;21105;-86
2020/12/14 01:09:31;;;;;;;13.17;10.63;;;;;;;1.41;77.76;100447.47;1748596;80;21316;-85
2020/12/14 01:12:04;;;;;;;13.23;10.50;;;;;;;1.34;77.97;100449.78;1756983;80;21652;-84
2020/12/14 01:14:31;;;;;;;12.07;9.93;;;;;;;1.29;78.10;100444.89;1751175;80;21185;-86
2020/12/14 01:17:00;;;;;;;10.60;8.93;;;;;;;1.24;78.16;100447.05;1755692;80;21221;-85
2020/12/14 01:19:31;;;;;;;8.40;6.80;;;;;;;1.28;78.13;100443.70;1758562;80;21162;-87
2020/12/14 01:22:00;;;;;;;11.73;8.97;;;;;;;1.40;77.77;100441.39;1753586;81;21161;-86
2020/12/14 01:24:27;;;;;;;13.17;10.10;;;;;;;1.37;77.82;100449.51;1752720;80;21344;-87
2020/12/14 01:26:54;;;;;;;11.53;9.43;;;;;;;1.30;78.07;100439.15;1756759;80;21893;-89
2020/12/14 01:29:22;;;;;;;13.70;11.13;;;;;;;1.03;78.23;100404.18;1749981;81;21270;-86
2020/12/14 01:31:49;;;;;;;13.30;10.03;;;;;;;1.20;78.43;100439.07;1752377;81;21336;-87
2020/12/14 01:34:17;;;;;;;12.43;8.87;;;;;;;1.26;78.36;100437.28;1764884;81;21660;-86
2020/12/14 01:36:47;;;;;;;11.83;9.47;;;;;;;1.39;78.08;100441.50;1757490;78;21286;-85
2020/12/14 01:39:12;;;;;;;11.50;10.40;;;;;;;1.39;78.06;100431.00;1756400;79;21127;-86
2020/12/14 01:41:42;;;;;;;12.10;9.53;;;;;;;1.32;78.26;100438.57;1760584;80;21281;-86
2020/12/14 01:44:09;;;;;;;12.97;11.03;;;;;;;1.28;78.34;100439.75;1754497;80;21180;-85
2020/12/14 01:46:37;;;;;;;12.13;10.00;;;;;;;1.22;78.33;100431.08;1764159;80;21170;-85
2020/12/14 01:49:05;;;;;;;11.23;9.50;;;;;;;1.25;78.32;100429.03;1759272;80;21178;-84
2020/12/14 01:51:33;;;;;;;10.80;9.67;;;;;;;1.36;78.12;100436.04;1758612;80;21194;-85
2020/12/14 01:54:33;;;;;;;12.80;11.03;;;;;;;1.36;78.11;100432.10;1742625;80;21158;-86
2020/12/14 01:57:08;;;;;;;14.57;11.43;;;;;;;1.29;78.42;100434.88;1738041;80;21257;-85
2020/12/14 01:59:41;;;;;;;12.37;10.03;;;;;;;1.20;78.52;100431.19;1746606;80;21160;-86
2020/12/14 02:02:08;;;;;;;10.67;8.20;;;;;;;1.14;78.75;100433.02;1756994;80;21243;-86
2020/12/14 02:04:35;;;;;;;10.53;9.00;;;;;;;1.24;78.41;100429.16;1754875;80;21171;-87
2020/12/14 02:07:02;;;;;;;10.63;9.30;;;;;;;1.27;78.26;100426.28;1755967;80;21672;-86
2020/12/14 02:09:29;;;;;;;12.63;10.83;;;;;;;1.16;78.38;100429.78;1719341;82;21707;-87
2020/12/14 02:11:57;;;;;;;14.97;11.50;;;;;;;1.10;78.77;100425.04;1723441;82;21199;-85
2020/12/14 02:14:24;;;;;;;11.30;10.10;;;;;;;1.09;78.96;100432.55;1713412;82;21164;-87
2020/12/14 02:16:50;;;;;;;12.87;10.00;;;;;;;1.15;78.85;100433.38;1666475;84;21146;-86
2020/12/14 02:19:18;;;;;;;10.47;9.40;;;;;;;1.28;78.55;100434.05;1671007;81;21314;-87
2020/12/14 02:21:49;;;;;;;11.80;8.57;;;;;;;1.31;78.46;100438.20;1690497;83;21238;-87
2020/12/14 02:24:17;;;;;;;12.10;10.53;;;;;;;1.23;78.35;100434.89;1717719;81;21307;-86
2020/12/14 02:26:50;;;;;;;13.27;10.43;;;;;;;1.17;78.59;100432.78;1718467;82;21209;-84
2020/12/14 02:29:20;;;;;;;13.87;10.63;;;;;;;1.11;78.72;100434.56;1712122;82;21376;-84
2020/12/14 02:31:46;;;;;;;10.40;9.37;;;;;;;1.16;78.68;100437.66;1719217;82;21168;-84
2020/12/14 02:34:14;;;;;;;11.67;9.60;;;;;;;1.30;78.48;100445.25;1688809;84;21319;-84
2020/12/14 02:36:41;;;;;;;12.57;10.90;;;;;;;1.34;78.44;100436.16;1699623;80;21233;-83
2020/12/14 02:39:08;;;;;;;;;;;;;;;1.30;78.54;100437.37;1717908;82;21202;-85
2020/12/14 02:41:35;;;;;;;13.50;11.83;;;;;;;1.25;78.60;100439.54;1680579;83;20197;-86
2020/12/14 02:44:02;;;;;;;13.93;9.80;;;;;;;1.18;78.74;100438.85;1711233;82;21339;-85
2020/12/14 02:46:29;;;;;;;9.37;7.73;;;;;;;1.23;78.58;100441.45;1709713;83;21233;-85
2020/12/14 02:48:55;;;;;;;9.77;8.77;;;;;;;1.36;78.23;100440.80;1720959;83;21193;-86
2020/12/14 02:51:22;;;;;;;14.60;9.93;;;;;;;1.36;78.06;100440.80;1724121;82;21344;-85
2020/12/14 02:53:49;;;;;;;;;;;;;;;1.31;78.35;100433.77;1690167;84;21174;-81
2020/12/14 02:56:17;;;;;;;16.37;9.53;;;;;;;1.29;78.39;100437.01;1683350;83;20519;-81
2020/12/14 02:58:44;;;;;;;10.93;8.37;;;;;;;1.21;78.52;100436.81;1703856;82;21199;-80
2020/12/14 03:01:11;;;;;;;8.50;7.40;;;;;;;1.27;78.39;100436.80;1705883;84;21199;-80
2020/12/14 03:03:40;;;;;;;8.97;7.77;;;;;;;1.41;78.05;100435.64;1687429;83;21209;-85
2020/12/14 03:06:07;;;;;;;12.60;8.70;;;;;;;1.41;77.88;100431.22;1716607;80;21061;-83
2020/12/14 03:08:35;;;;;;;10.83;9.33;;;;;;;1.34;78.00;100437.96;1709275;80;21120;-84
2020/12/14 03:11:02;;;;;;;9.70;8.70;;;;;;;1.30;78.21;100440.00;1682559;83;21336;-84
2020/12/14 03:13:29;;;;;;;13.80;10.27;;;;;;;1.27;78.24;100434.16;1700804;82;21185;-83
2020/12/14 03:15:57;;;;;;;9.07;6.67;;;;;;;1.29;78.11;100431.76;1713634;82;21250;-83
2020/12/14 03:18:24;;;;;;;9.27;7.97;;;;;;;1.40;77.45;100435.31;1709120;82;21205;-84
2020/12/14 03:20:51;;;;;;;10.87;8.77;;;;;;;1.34;77.59;100434.02;1673956;84;21245;-85
2020/12/14 03:23:18;;;;;;;12.07;9.90;;;;;;;1.27;77.87;100434.99;1671078;83;21269;-85
2020/12/14 03:25:44;;;;;;;11.63;10.33;;;;;;;1.20;78.06;100433.81;1707643;82;21170;-84
2020/12/14 03:28:11;;;;;;;11.53;9.70;;;;;;;1.16;78.24;100429.78;1666779;83;21191;-85
2020/12/14 03:30:39;;;;;;;12.90;10.17;;;;;;;1.25;78.02;100431.66;1679990;84;21317;-84
2020/12/14 03:33:07;;;;;;;10.93;8.70;;;;;;;1.32;77.75;100428.89;1712603;82;21221;-82
2020/12/14 03:35:33;;;;;;;11.20;9.37;;;;;;;1.28;77.96;100427.48;1685752;83;21090;-84
2020/12/14 03:38:00;;;;;;;9.93;8.93;;;;;;;1.23;78.04;100428.81;1667593;84;21197;-82
2020/12/14 03:40:27;;;;;;;;;;;;;;;1.17;78.05;100432.78;1669784;84;21226;-84
2020/12/14 03:42:54;;;;;;;8.40;6.60;;;;;;;1.12;78.27;100434.94;1657000;85;20298;-82
2020/12/14 03:45:21;;;;;;;11.13;8.33;;;;;;;1.10;78.12;100433.74;1675357;84;21343;-83
2020/12/14 03:47:48;;;;;;;11.10;8.17;;;;;;;1.15;77.85;100433.38;1677603;84;21501;-82
2020/12/14 03:50:15;;;;;;;10.00;8.60;;;;;;;1.16;77.87;100432.41;1666078;84;21332;-84
2020/12/14 03:52:42;;;;;;;;;;;;;;;1.10;78.06;100435.05;1682126;84;21301;-85
2020/12/14 03:55:08;;;;;;;11.00;9.47;;;;;;;1.05;78.26;100440.33;1679511;84;20284;-83
2020/12/14 03:57:35;;;;;;;;;;;;;;;0.95;78.50;100437.13;1677961;84;21204;-86
2020/12/14 04:00:05;;;;;;;10.05;8.13;;;;;;;1.02;78.56;100432.69;1680602;84;20494;-84
2020/12/14 04:02:34;;;;;;;11.00;9.33;;;;;;;1.12;78.12;100436.25;1645599;85;21433;-85
2020/12/14 04:05:01;;;;;;;10.90;9.37;;;;;;;1.12;78.12;100438.88;1679425;84;21746;-83
2020/12/14 04:07:28;;;;;;;10.10;9.10;;;;;;;1.07;78.31;100441.03;1662310;85;22279;-84
2020/12/14 04:09:55;;;;;;;12.37;8.97;;;;;;;1.01;78.55;100442.36;1666991;84;21222;-84
2020/12/14 04:12:22;;;;;;;10.83;9.07;;;;;;;1.00;78.65;100439.85;1667537;84;21177;-84
2020/12/14 04:14:49;;;;;;;8.90;8.00;;;;;;;1.07;78.57;100442.34;1662998;84;21238;-83
2020/12/14 04:17:16;;;;;;;9.47;8.50;;;;;;;1.20;78.18;100446.95;1680866;84;21227;-83
2020/12/14 04:19:43;;;;;;;11.83;9.30;;;;;;;1.20;78.07;100443.01;1675099;84;21198;-82
2020/12/14 04:22:12;;;;;;;12.60;10.27;;;;;;;1.12;78.32;100444.13;1678507;85;21203;-85
2020/12/14 04:24:39;;;;;;;;;;;;;;;1.05;78.50;100444.26;1687263;84;21134;-80
2020/12/14 04:27:06;;;;;;;11.37;7.20;;;;;;;1.01;78.62;100448.92;1684803;83;20198;-84
2020/12/14 04:29:33;;;;;;;9.07;7.07;;;;;;;1.01;78.52;100448.09;1680688;84;21643;-84
2020/12/14 04:32:00;;;;;;;;;;;;;;;1.13;78.18;100446.63;1679387;84;21162;-85
2020/12/14 04:34:27;;;;;;;13.55;8.95;;;;;;;1.15;78.12;100453.08;1661227;84;20187;-84
2020/12/14 04:36:54;;;;;;;8.93;8.07;;;;;;;1.02;78.47;100447.98;1681418;83;21079;-84
2020/12/14 04:39:21;;;;;;;;;;;;;;;0.63;78.57;100390.34;1650412;84;21625;-83
2020/12/14 04:41:48;;;;;;;10.47;8.83;;;;;;;0.95;78.57;100452.88;1652686;85;20583;-84
2020/12/14 04:44:14;;;;;;;;;;;;;;;0.94;78.59;100466.97;1679791;85;21200;-86
2020/12/14 04:46:42;;;;;;;12.00;9.33;;;;;;;1.07;78.21;100458.92;1675367;85;20212;-84
2020/12/14 04:49:09;;;;;;;9.80;8.77;;;;;;;1.12;78.17;100462.50;1677598;84;21217;-84
2020/12/14 04:51:37;;;;;;;9.23;6.77;;;;;;;1.09;78.35;100464.05;1669801;84;21421;-82
2020/12/14 04:54:05;;;;;;;10.87;7.87;;;;;;;1.06;78.48;100461.20;1660733;85;21224;-84
2020/12/14 04:56:39;;;;;;;10.43;8.97;;;;;;;0.93;78.37;100463.98;1644530;85;21178;-86
2020/12/14 04:59:10;;;;;;;10.70;8.87;;;;;;;0.95;78.45;100462.06;1672123;84;21194;-86
2020/12/14 05:01:37;;;;;;;10.93;8.33;;;;;;;1.11;78.34;100471.32;1658772;85;22275;-85
2020/12/14 05:04:04;;;;;;;12.37;9.67;;;;;;;1.13;78.45;100472.89;1658388;85;21493;-82
2020/12/14 05:06:49;;;;;;;11.87;10.30;;;;;;;1.12;78.44;100476.94;1662589;82;21123;-83
2020/12/14 05:09:20;;;;;;;12.93;10.30;;;;;;;1.12;78.49;100483.51;1624503;86;21348;-84
2020/12/14 05:11:49;;;;;;;13.63;10.27;;;;;;;1.10;78.49;100483.63;1658779;85;21701;-85
2020/12/14 05:14:30;;;;;;;9.57;8.53;;;;;;;1.15;78.31;100493.28;1651038;85;21210;-84
2020/12/14 05:16:58;;;;;;;9.27;8.33;;;;;;;1.29;77.78;100491.33;1641301;86;21229;-84
2020/12/14 05:19:26;;;;;;;10.63;9.57;;;;;;;1.24;77.82;100493.00;1643674;85;21160;-84
2020/12/14 05:22:01;;;;;;;10.23;8.73;;;;;;;1.18;77.98;100493.50;1648267;86;21210;-84
2020/12/14 05:24:31;;;;;;;11.20;9.23;;;;;;;1.13;77.98;100500.91;1645304;85;21178;-86
2020/12/14 05:27:00;;;;;;;10.27;8.93;;;;;;;1.09;78.01;100492.93;1658217;85;21203;-84
2020/12/14 05:29:30;;;;;;;10.23;9.10;;;;;;;1.13;77.94;100492.58;1646710;85;21279;-84
2020/12/14 05:32:10;;;;;;;12.67;10.00;;;;;;;1.24;77.53;100496.11;1637605;86;21147;-86
2020/12/14 05:34:42;;;;;;;10.83;9.37;;;;;;;1.18;77.62;100502.69;1653655;85;21199;-87
2020/12/14 05:37:12;;;;;;;12.07;10.57;;;;;;;1.10;77.70;100504.63;1653965;84;21217;-86
2020/12/14 05:39:39;;;;;;;12.50;10.77;;;;;;;1.01;77.81;100498.80;1648901;86;21211;-84
2020/12/14 05:42:20;;;;;;;10.77;9.50;;;;;;;1.03;77.86;100503.93;1644073;86;21213;-84
2020/12/14 05:44:50;;;;;;;11.87;10.47;;;;;;;1.14;77.58;100502.11;1651580;86;21322;-85
2020/12/14 05:47:29;;;;;;;12.00;9.70;;;;;;;1.10;77.71;100509.05;1657883;86;21312;-86
2020/12/14 05:50:02;;;;;;;15.27;12.07;;;;;;;1.03;77.73;100505.24;1652467;86;21458;-82
2020/12/14 05:52:32;;;;;;;11.90;9.43;;;;;;;0.97;77.97;100508.70;1611442;86;21238;-84
2020/12/14 05:55:12;;;;;;;12.73;10.33;;;;;;;1.04;78.01;100505.13;1822646;77;22969;-84
2020/12/14 05:57:39;;;;;;;14.03;10.77;;;;;;;1.07;77.55;100512.73;1758562;80;21638;-83
2020/12/14 06:00:09;;;;;;;16.70;13.60;;;;;;;1.11;77.66;100513.33;1756020;81;21630;-84
2020/12/14 06:02:36;;;;;;;15.83;13.53;;;;;;;1.08;77.87;100518.84;1764508;80;21228;-85
2020/12/14 06:05:05;;;;;;;19.03;14.00;;;;;;;1.04;77.90;100524.81;1755601;81;21760;-85
2020/12/14 06:07:34;;;;;;;13.90;12.33;;;;;;;1.00;77.85;100523.39;1700337;81;21139;-84
2020/12/14 06:10:10;;;;;;;13.03;10.60;;;;;;;1.05;77.67;100523.02;1754730;78;21636;-84
2020/12/14 06:12:42;;;;;;;19.47;14.47;;;;;;;1.11;77.14;100527.31;1747727;80;21179;-86
2020/12/14 06:15:14;;;;;;;17.70;14.07;;;;;;;1.05;77.27;100523.84;1757676;81;21637;-86
2020/12/14 06:17:42;;;;;;;16.73;13.40;;;;;;;0.99;77.71;100529.59;1764816;81;21187;-80
2020/12/14 06:20:18;;;;;;;14.27;12.53;;;;;;;0.97;77.92;100532.33;1724575;81;21211;-81
2020/12/14 06:22:49;;;;;;;18.03;13.37;;;;;;;0.99;77.96;100535.33;1732430;82;21160;-80
2020/12/14 06:25:22;;;;;;;15.10;12.00;;;;;;;1.08;77.65;100543.78;1737434;81;21183;-82
2020/12/14 06:27:50;;;;;;;16.33;13.20;;;;;;;1.15;77.39;100544.97;1719548;82;21172;-81
2020/12/14 06:30:31;;;;;;;16.03;12.57;;;;;;;1.15;77.54;100548.42;1739996;82;21179;-79
2020/12/14 06:33:08;;;;;;;18.83;13.97;;;;;;;1.15;77.66;100548.91;1757973;80;21154;-85
2020/12/14 06:35:49;;;;;;;16.80;13.27;;;;;;;1.11;77.65;100549.63;1733702;82;21084;-80
2020/12/14 06:38:38;;;;;;;18.70;13.87;;;;;;;1.10;77.82;100557.13;1710143;83;21181;-82
2020/12/14 06:41:20;;;;;;;16.70;15.10;;;;;;;1.27;77.52;100553.16;1818579;76;28215;-81
2020/12/14 06:44:05;;;;;;;17.97;14.67;;;;;;;1.51;76.94;100562.18;1839871;77;21165;-83
2020/12/14 06:46:35;;;;;;;19.07;15.63;;;;;;;1.68;76.59;100556.87;1835768;77;21161;-81
2020/12/14 06:49:09;;;;;;;21.43;16.10;;;;;;;1.61;76.50;100554.38;1833837;77;21302;-82
2020/12/14 06:51:52;;;;;;;18.07;13.80;;;;;;;1.54;76.58;100551.89;1832298;77;21323;-83
2020/12/14 06:54:47;;;;;;;16.13;12.57;;;;;;;1.58;76.39;100549.84;1831904;77;21299;-82
2020/12/14 06:57:17;;;;;;;18.90;14.58;;;;;;;1.69;76.07;100548.01;1833116;77;21172;-79
2020/12/14 06:59:51;;;;;;;20.57;16.20;;;;;;;1.65;75.84;100549.22;1776050;79;21177;-79
2020/12/14 07:02:18;;;;;;;19.30;16.07;;;;;;;1.55;76.11;100541.27;1766073;79;21180;-82
2020/12/14 07:04:46;;;;;;;20.50;15.63;;;;;;;1.49;76.35;100546.20;1797378;78;21153;-83
2020/12/14 07:07:29;;;;;;;19.90;15.80;;;;;;;1.45;76.56;100544.30;1740054;78;21245;-80
2020/12/14 07:10:12;;;;;;;17.03;13.10;;;;;;;1.51;76.53;100542.97;1726304;82;21218;-82
2020/12/14 07:12:42;;;;;;;17.47;13.63;;;;;;;1.66;76.21;100543.02;1721328;82;21481;-85
2020/12/14 07:15:26;;;;;;;14.23;12.37;;;;;;;1.67;76.19;100546.48;1734447;82;21340;-85
2020/12/14 07:18:11;;;;;;;14.17;12.77;;;;;;;1.61;76.42;100546.50;1723561;82;21322;-83
2020/12/14 07:20:54;;;;;;;15.77;12.43;;;;;;;1.61;76.58;100549.13;1690675;82;21353;-85
2020/12/14 07:23:21;;;;;;;17.50;13.27;;;;;;;1.60;76.47;100554.50;1717626;82;21326;-83
2020/12/14 07:25:48;;;;;;;16.20;12.03;;;;;;;1.54;76.59;100551.44;1731397;82;21732;-83
2020/12/14 07:28:16;;;;;;;12.93;11.60;;;;;;;1.60;76.41;100554.50;1719240;82;21187;-81
2020/12/14 07:30:43;;;;;;;;;;;;;;;1.72;76.11;100555.66;1715735;82;21196;-79
2020/12/14 07:33:10;;;;;;;14.37;12.83;;;;;;;1.71;76.06;100555.77;1728507;82;20186;-81
2020/12/14 07:35:39;;;;;;;16.27;12.17;;;;;;;1.36;76.47;100518.77;1716516;82;21081;-81
2020/12/14 07:38:12;;;;;;;16.77;13.23;;;;;;;1.54;76.49;100558.45;1698466;81;21195;-83
2020/12/14 07:40:41;;;;;;;17.70;13.10;;;;;;;1.52;76.60;100568.27;1721760;82;21762;-82
2020/12/14 07:43:08;;;;;;;19.10;14.17;;;;;;;1.50;76.68;100572.31;1710059;83;21200;-83
2020/12/14 07:45:38;;;;;;;15.10;12.17;;;;;;;1.61;76.39;100573.27;1713385;82;21216;-84
2020/12/14 07:48:05;;;;;;;;;;;;;;;1.75;76.09;100578.20;1715385;83;21193;-84
2020/12/14 07:50:32;;;;;;;14.63;12.28;;;;;;;1.75;76.15;100587.41;1712998;82;20216;-83
2020/12/14 07:53:02;;;;;;;14.47;12.60;;;;;;;1.65;76.48;100590.44;1711098;83;21193;-80
2020/12/14 07:55:29;;;;;;;14.57;12.77;;;;;;;1.61;76.52;100584.59;1708603;82;21192;-81
2020/12/14 07:57:56;;;;;;;15.77;12.00;;;;;;;1.39;76.48;100553.14;1712080;83;22394;-81
2020/12/14 08:00:26;;;;;;;13.23;11.83;;;;;;;1.61;76.40;100591.16;1682038;83;21235;-83
2020/12/14 08:03:03;;;;;;;14.50;11.60;;;;;;;1.73;76.05;100583.61;1648725;86;21338;-84
2020/12/14 08:05:30;;;;;;;;;;;;;;;1.80;75.75;100580.48;1665023;85;21213;-79
2020/12/14 08:08:03;;;;;;;16.93;13.87;;;;;;;1.74;75.84;100588.38;1679198;83;20190;-80
2020/12/14 08:10:31;;;;;;;16.40;13.20;;;;;;;1.62;76.10;100598.10;1644261;85;21835;-81
2020/12/14 08:13:03;;;;;;;15.43;12.43;;;;;;;1.60;76.16;100600.48;1659154;86;21754;-80
2020/12/14 08:15:30;;;;;;;14.07;11.63;;;;;;;1.59;76.28;100597.03;1678763;84;21196;-81
2020/12/14 08:17:58;;;;;;;13.30;11.53;;;;;;;1.64;76.16;100602.75;1702981;83;21258;-82
2020/12/14 08:20:28;;;;;;;18.40;14.77;;;;;;;1.77;75.71;100593.37;1705639;82;21665;-83
2020/12/14 08:22:57;;;;;;;17.47;13.47;;;;;;;1.80;75.59;100589.67;1709080;82;21159;-82
2020/12/14 08:25:27;;;;;;;18.03;14.53;;;;;;;1.73;75.92;100580.98;1707171;82;21968;-82
2020/12/14 08:28:01;;;;;;;17.47;13.87;;;;;;;1.70;76.03;100575.97;1710017;83;21210;-82
2020/12/14 08:30:31;;;;;;;18.37;14.27;;;;;;;1.61;75.41;100578.03;1711453;82;21205;-83
2020/12/14 08:33:15;;;;;;;17.63;12.97;;;;;;;1.56;75.60;100578.88;1709366;84;21782;-82
2020/12/14 08:35:44;;;;;;;18.17;14.13;;;;;;;1.63;75.76;100572.16;1697016;81;21533;-82
2020/12/14 08:38:20;;;;;;;13.57;11.47;;;;;;;1.65;75.83;100575.50;1674218;83;21218;-83
2020/12/14 08:40:54;;;;;;;14.50;12.83;;;;;;;1.61;75.90;100581.97;1673279;84;21330;-82
2020/12/14 08:43:33;;;;;;;14.27;12.70;;;;;;;1.57;76.05;100577.92;1676803;84;21221;-83
2020/12/14 08:46:10;;;;;;;17.80;13.50;;;;;;;1.54;76.26;100574.22;1631403;86;21210;-81
2020/12/14 08:49:05;;;;;;;16.57;14.50;;;;;;;1.55;76.36;100573.28;1791106;77;23154;-82
2020/12/14 08:51:33;;;;;;;15.77;11.67;;;;;;;1.60;76.21;100566.32;1766437;80;21317;-83
2020/12/14 08:54:17;;;;;;;13.13;10.80;;;;;;;1.73;75.96;100566.98;1714298;83;21295;-82
2020/12/14 08:56:45;;;;;;;14.53;12.03;;;;;;;1.72;75.92;100564.85;1706655;82;21159;-82
2020/12/14 08:59:15;;;;;;;12.77;10.07;;;;;;;1.68;75.89;100567.38;1712872;81;21210;-84
2020/12/14 09:02:04;;;;;;;11.37;10.13;;;;;;;1.69;75.98;100566.89;1707790;82;21260;-82
2020/12/14 09:04:35;;;;;;;12.53;11.13;;;;;;;1.66;75.97;100568.48;1702462;83;21254;-83
2020/12/14 09:07:07;;;;;;;13.90;11.60;;;;;;;1.65;76.09;100569.42;1673361;82;21115;-83
2020/12/14 09:09:41;;;;;;;14.67;11.87;;;;;;;1.79;75.81;100568.28;1655486;84;21286;-83
2020/12/14 09:12:13;;;;;;;13.43;11.03;;;;;;;1.91;75.39;100560.72;1613978;86;21208;-83
2020/12/14 09:14:40;;;;;;;12.37;10.87;;;;;;;1.89;75.45;100554.75;1688502;83;21686;-82
2020/12/14 09:17:17;;;;;;;;;;;;;;;1.86;75.61;100554.99;1684572;83;21247;-84
2020/12/14 09:19:51;;;;;;;14.78;11.97;;;;;;;1.84;75.54;100551.17;1682408;83;20218;-82
2020/12/14 09:22:22;;;;;;;13.87;12.07;;;;;;;1.79;75.70;100545.48;1657906;83;21613;-83
2020/12/14 09:24:49;;;;;;;15.33;12.03;;;;;;;1.79;75.48;100545.48;1699584;83;21641;-82
2020/12/14 09:27:16;;;;;;;12.97;11.63;;;;;;;1.87;75.19;100539.10;1699974;83;21821;-83
2020/12/14 09:29:43;;;;;;;10.63;9.53;;;;;;;2.03;74.83;100536.50;1686584;83;21352;-82
2020/12/14 09:32:11;;;;;;;12.97;11.07;;;;;;;2.02;74.29;100537.48;1683191;84;21642;-84
2020/12/14 09:34:40;;;;;;;12.87;11.50;;;;;;;1.89;74.56;100542.44;1689437;84;21196;-83
2020/12/14 09:37:11;;;;;;;12.20;10.97;;;;;;;1.81;74.75;100551.91;1694473;83;21748;-83
2020/12/14 09:39:39;;;;;;;12.70;10.00;;;;;;;1.73;74.99;100546.82;1674154;83;21429;-83
2020/12/14 09:42:06;;;;;;;11.80;10.57;;;;;;;1.70;75.17;100550.17;1681685;84;21232;-82
2020/12/14 09:44:33;;;;;;;13.73;11.03;;;;;;;1.77;75.04;100547.38;1675930;83;21222;-83
2020/12/14 09:47:02;;;;;;;12.30;10.73;;;;;;;1.90;74.73;100549.83;1652410;85;21213;-84
2020/12/14 09:49:29;;;;;;;14.17;11.27;;;;;;;1.90;74.73;100553.31;1682347;84;21213;-85
2020/12/14 09:51:56;;;;;;;9.27;8.37;;;;;;;1.84;74.94;100554.29;1659233;84;21227;-82
2020/12/14 09:54:23;;;;;;;12.50;10.63;;;;;;;1.80;74.92;100547.62;1688246;82;21650;-83
2020/12/14 09:56:50;;;;;;;11.73;10.40;;;;;;;1.77;74.81;100551.31;1688053;82;21817;-83
2020/12/14 09:59:17;;;;;;;12.30;10.10;;;;;;;1.71;74.95;100551.83;1679773;83;21256;-84
2020/12/14 10:01:44;;;;;;;11.57;10.47;;;;;;;1.77;74.80;100561.83;1684139;83;21356;-83
2020/12/14 10:04:12;;;;;;;11.47;10.20;;;;;;;1.88;74.48;100566.22;1673711;83;21237;-83
2020/12/14 10:06:40;;;;;;;13.13;10.40;;;;;;;1.89;74.65;100573.16;1697637;82;21150;-88
2020/12/14 10:10:00;;;;;;;15.07;13.37;;;;;;;1.73;74.59;100573.10;1815259;77;23621;-86
2020/12/14 10:12:29;;;;;;;16.30;12.50;;;;;;;1.51;74.70;100578.43;1777767;78;21188;-85
2020/12/14 10:14:56;;;;;;;14.23;11.67;;;;;;;1.41;75.14;100577.48;1778010;80;21744;-80
2020/12/14 10:17:24;;;;;;;19.70;14.30;;;;;;;1.39;75.45;100585.97;1788708;79;21177;-84
2020/12/14 10:19:54;;;;;;;19.47;15.17;;;;;;;1.52;75.29;100583.53;1778791;78;21186;-81
2020/12/14 10:22:21;;;;;;;21.10;14.80;;;;;;;1.65;74.90;100592.58;1791494;79;21664;-81
2020/12/14 10:24:48;;;;;;;;;;;;;;;1.64;75.07;100588.76;1789449;79;21188;-83
2020/12/14 10:27:17;;;;;;;25.15;17.70;;;;;;;1.64;75.35;100592.24;1789982;79;20460;-83
2020/12/14 10:29:46;;;;;;;26.00;17.00;;;;;;;1.61;75.51;100588.53;1782933;80;21592;-84
2020/12/14 10:32:15;;;;;;;21.97;16.87;;;;;;;1.63;75.54;100580.54;1753341;78;21297;-83
2020/12/14 10:34:42;;;;;;;23.63;17.37;;;;;;;1.67;75.48;100579.33;1790751;78;21686;-85
2020/12/14 10:37:10;;;;;;;20.00;15.97;;;;;;;1.79;75.24;100574.85;1764591;80;21094;-85
2020/12/14 10:39:50;;;;;;;28.97;18.20;;;;;;;1.99;74.80;100564.02;1824819;77;22718;-83
2020/12/14 10:42:25;;;;;;;23.05;18.00;;;;;;;1.98;74.74;100561.88;1804144;77;21272;-83
2020/12/14 10:45:06;;;;;;;25.70;17.70;;;;;;;1.97;74.71;100570.72;1772352;77;21174;-84
2020/12/14 10:47:46;;;;;;;26.33;17.80;;;;;;;1.97;74.74;100569.89;1796772;78;21185;-83
2020/12/14 10:50:16;;;;;;;33.17;18.47;;;;;;;1.94;74.49;100568.33;1801065;77;21225;-85
2020/12/14 10:52:45;;;;;;;24.13;16.67;;;;;;;1.88;74.62;100568.36;1801188;77;21283;-84
2020/12/14 10:55:18;;;;;;;26.03;16.63;;;;;;;1.87;74.69;100572.45;1805261;78;21241;-85
2020/12/14 10:57:45;;;;;;;17.77;14.90;;;;;;;1.97;74.43;100566.77;1788816;78;21221;-83
2020/12/14 11:00:18;;;;;;;20.47;15.20;;;;;;;1.59;74.12;100477.48;1793140;79;21307;-86
2020/12/14 11:02:47;;;;;;;21.63;15.93;;;;;;;2.13;74.13;100568.48;1786935;78;21172;-83
2020/12/14 11:05:18;;;;;;;18.93;14.83;;;;;;;2.10;74.02;100569.22;1753111;79;21630;-84
2020/12/14 11:33:35;;;;;;;28.10;15.87;;;;;;;1.85;74.75;100570.43;1705907;81;21338;-95
2020/12/14 11:36:52;;;;;;;23.97;15.63;;;;;;;1.81;74.64;100573.78;1667283;83;21073;-94
2020/12/14 11:40:09;;;;;;;23.63;17.13;;;;;;;1.94;74.40;100583.64;1631663;84;21237;-96
2020/12/14 11:43:48;;;;;;;25.10;16.20;;;;;;;1.95;74.51;100579.21;1678147;81;21197;-96
2020/12/14 11:47:13;;;;;;;30.47;22.60;;;;;;;1.89;74.93;100581.04;1675856;83;21211;-94
2020/12/14 11:50:27;;;;;;;19.37;15.13;;;;;;;1.84;75.12;100586.66;1643100;82;21187;-93
2020/12/14 11:53:28;;;;;;;18.87;14.07;;;;;;;1.78;75.37;100583.23;1681110;84;21260;-93
2020/12/14 12:00:18;;;;;;;26.60;15.67;;;;;;;1.73;75.20;100583.61;1630226;86;21328;-96
2020/12/14 12:13:51;;;;;;;25.30;17.30;;;;;;;1.76;75.76;100586.46;1842243;75;26507;-94
2020/12/14 12:20:27;;;;;;;;;;;;;;;;;;;;;
2020/12/14 12:33:46;;;;;;;31.83;18.70;;;;;;;1.80;75.50;100596.25;1784667;79;22281;-93
2020/12/14 12:36:20;;;;;;;27.93;19.77;;;;;;;1.91;74.94;100603.60;1748729;80;21358;-95
2020/12/14 12:39:10;;;;;;;32.93;21.33;;;;;;;1.98;74.70;100605.27;1664066;83;21206;-92
2020/12/14 12:42:12;;;;;;;28.97;19.70;;;;;;;1.95;74.92;100598.93;1693997;83;21449;-95
2020/12/14 12:45:31;;;;;;;34.33;22.93;;;;;;;1.89;74.84;100606.02;1689706;83;21209;-94